AirNav   Pilot Hours Calculator
 
 986 users online  

6R5 Alvin Airpark
Alvin, Texas, USA

GOING TO ALVIN?


FAA INFORMATION EFFECTIVE 22 APRIL 2021

Location

FAA Identifier: 6R5
Lat/Long: 29-24-53.1000N 095-17-20.1000W
29-24.885000N 095-17.335000W
29.4147500,-95.2889167
(estimated)
Elevation: 43 ft. / 13 m (estimated)
Variation: 06E (1985)
From city: 3 miles W of ALVIN, TX
Time zone: UTC -5 (UTC -6 during Standard Time)
Zip code: 77511

Airport Operations

Airport use: Open to the public
Activation date: 09/1959
Control tower: no
ARTCC: HOUSTON CENTER
FSS: MONTGOMERY COUNTY FLIGHT SERVICE STATION
NOTAMs facility: CXO (NOTAM-D service available)
Attendance: UNATNDD
Wind indicator: yes
Segmented circle: no

Airport Communications

CTAF: 122.9
WX ASOS at LVJ (7 nm N): 118.525 (281-992-1853)
WX AWOS-3 at AXH (11 nm NW): 123.625 (281-431-6572)
WX AWOS-3 at EFD (13 nm NE): 135.575 (713-847-4430)
WX ASOS at HOU (14 nm N): PHONE 713-847-1462
WX AWOS-3PT at T41 (19 nm NE): 120.275 (281-471-2206)

Nearby radio navigation aids

VOR radial/distance  VOR name  Freq  Var
VUHr286/23.7SCHOLES VOR/DME113.0006E
MHFr247/29.4TRINITY VOR/DME113.6007E
IAHr170/32.7HUMBLE VORTAC116.6005E

Airport Services

Parking: hangars and tiedowns

Runway Information

Runway 6/24

Dimensions: 1500 x 80 ft. / 457 x 24 m
Surface: turf, in poor condition
RWY DEFINED BY MOWING. DIFFICULT TO DETERMINE RWY DIMENSIONS. RWY SFC ROUGH & UNEVEN.
RUNWAY 6  RUNWAY 24
Latitude: 29-24.873632N29-24.952375N
Longitude: 095-17.473242W095-17.205188W
Elevation: 41.0 ft.42.0 ft.
Traffic pattern: leftleft
Runway heading: 065 magnetic, 071 true245 magnetic, 251 true
Obstructions: 34 ft. pline, 55 ft. left of centerline50 ft. trees

Runway 3/21

Dimensions: 1420 x 75 ft. / 433 x 23 m
Surface: turf, in poor condition
RWY DEFINED BY MOWING. DIFFICULT TO DETERMINE RWY DIMENSIONS. RWY SFC ROUGH & UNEVEN.
RUNWAY 3  RUNWAY 21
Latitude: 29-24.794085N29-24.972068N
Longitude: 095-17.366012W095-17.191893W
Elevation: 41.0 ft.41.0 ft.
Traffic pattern: leftleft
Runway heading: 035 magnetic, 041 true215 magnetic, 221 true
Obstructions: 30 ft. trees, 35 ft. right of centerline36 ft. trees, 50 ft. left of centerline

Runway 12/30

Dimensions: 830 x 60 ft. / 253 x 18 m
Surface: turf, in poor condition
RWY DEFINED BY MOWING. DIFFICULT TO DETERMINE RWY DIMENSIONS. RWY SFC ROUGH & UNEVEN.
RUNWAY 12  RUNWAY 30
Latitude: 29-24.884553N29-24.794608N
Longitude: 095-17.478783W095-17.360790W
Elevation: 42.0 ft.41.0 ft.
Traffic pattern: leftleft
Runway heading: 125 magnetic, 131 true305 magnetic, 311 true
Obstructions: 34 ft. pline50 ft. trees, 60 ft. right of centerline

Airport Ownership and Management from official FAA records

Ownership: Privately-owned
Owner: RSNMART PROPERTIES, LLC
2102 CHERRY HILL DR
LEAGUE CITY, TX 77573
Phone (713) 208-8707
Manager: RANDY SMART
12357 CR 280
ALVIN, TX 77511
Phone (713) 208-8707

Airport Operational Statistics

Aircraft based on the field: 16
Single engine airplanes: 3
Ultralights: 13
    

Additional Remarks

RWY 03 +6 FT FENCE 40 FT SE OF CNTRLN ALG SOUTHEAST EDGE. +50 FT TREES ALG RWY 03 RIGHT OF CNTRLN.
RWY 21 +6 FT FENCE 20 FT FM THR 0B. +30 FT TREES ALONG RWY 21 LEFT OF CNTRLN.
RADIO CONTROL MODEL ACFT OPERATING AREA ADJACENT TO ARPT, NW
ALL RWYS DEFINED BY MOWING. NO MARKERS. RWY NOT MOWED.
6 FT FENCE ARND ARPT PERIMETER. ALL GATES LOCKED.
FOR CD CTC HOUSTON APCH AT 281-443-5844 TO CNL IFR CALL 281-443-5888.

Instrument Procedures

There are no published instrument procedures at 6R5.

Some nearby airports with instrument procedures:

KLVJ - Pearland Regional Airport (7 nm N)
KAXH - Houston Southwest Airport (11 nm NW)
KEFD - Ellington Airport (13 nm NE)
KHOU - William P Hobby Airport (14 nm N)
T41 - La Porte Municipal Airport (19 nm NE)
 
Loc | Ops | Rwys | IFR | FBO | Links
Com | Nav | Svcs | Stats | Notes
Area around 6R5 (Alvin Airpark)
 
Road maps at: MapQuest Bing Google
 
Aerial photo
WARNING: Photo may not be current or correct
Aerial photo of 6R5 (Alvin Airpark)
Do you have a better or more recent aerial photo of Alvin Airpark that you would like to share? If so, please send us your photo.

 
Sectional chart

 
Airport distance calculator
Flying to Alvin Airpark? Find the distance to fly.

From to 6R5

Sunrise and sunset
Times for 16-May-2021
 Local
(UTC-5)
 Zulu
(UTC)
Morning civil twilight06:0311:03
Sunrise06:2911:29
Sunset20:0601:06
Evening civil twilight20:3201:32

Current date and time
Zulu (UTC)  16-May-2021 13:30:37
Local (UTC-5)  16-May-2021 08:30:37
 
METAR
KLVJ 
6nm N 
161253Z AUTO 13007KT 10SM FEW020 BKN090 24/21 A3005 RMK AO2 SLP173 T02440206 $
KAXH 
11nm NW 
161315Z AUTO 14005KT 10SM OVC095 24/22 A3004 RMK AO2 LTG DSNT SW AND NW T02360220
KEFD 
13nm NE 
161250Z 12007KT 10SM FEW021 BKN090 BKN110 24/21 A3003
KHOU 
13nm N 
161253Z 13010KT 10SM SCT021 BKN090 OVC250 25/20 A3002 RMK AO2 SLP171 BINOVC T02500200
KT41 
19nm NE 
161315Z AUTO 13012KT 10SM BKN018 BKN024 OVC095 24/22 A3005 RMK AO2 LTG DSNT SW AND W T02430218
TAF
KEFD 
13nm NE 
161200Z 1612/1718 14006KT 9999 BKN030 QNH3001INS TEMPO 1612/1615 14012G18KT 8000 -TSRA BKN020CB BECMG 1614/1615 13010G20KT 9999 BKN020 QNH3001INS BECMG 1616/1617 14015G25KT 9000 -SHRA VCTS OVC020CB QNH2991INS TEMPO 1620/1701 15020G30KT 8000 -TSRA OVC020CB BECMG 1701/1702 13012KT 9000 BR BKN020 QNH2986INS BECMG 1715/1716 17012G18KT 9000 -SHRA BKN030 QNH2987INS TX27/1622Z TN22/1612Z
KHOU 
13nm N 
161120Z 1612/1712 13008KT P6SM FEW020 SCT035 BKN100 FM161400 14010KT P6SM VCSH SCT020 BKN090 BKN250 FM161600 14012G20KT P6SM VCTS SCT025CB BKN045 OVC080 FM170000 14008KT P6SM SCT020 BKN045 OVC100 FM170600 14008KT P6SM SCT015 BKN025 BKN150
NOTAMs
Click for the latest NOTAMs
NOTAMs are issued by the DoD/FAA and will open in a separate window not controlled by AirNav.

 

 
 

Would you like to see your business listed on this page?

 If your business provides an interesting product or service to pilots, flight crews, aircraft, or users of the Alvin Airpark, you should consider listing it here.  To start the listing process, click on the button below
 
Add a business
 

Other Pages about Alvin Airpark

Update a link
 
Copyright © AirNav, LLC. All rights reserved. Privacy Policy  Contact